Time;durP1;ratioP1;P1;durP2;ratioP2;P2;SDS_P1;SDS_P2;PMS_P1;PMS_P2;Temp;Humidity;BMP_temperature;BMP_pressure;BME280_temperature;BME280_humidity;BME280_pressure;Samples;Min_cycle;Max_cycle;Signal;HPM_P1;HPM_P2
2022/06/16 00:00:19;;;;;;;8.00;5.10;;;;;;;18.96;57.29;100964.69;6255555;23;20036;-80
2022/06/16 00:02:49;;;;;;;7.18;5.07;;;;;;;18.94;57.46;100956.09;6253167;23;20483;-80
2022/06/16 00:05:19;;;;;;;11.18;5.50;;;;;;;18.82;57.70;100954.06;6256027;23;20020;-78
2022/06/16 00:07:46;;;;;;;11.60;5.30;;;;;;;18.81;58.02;100947.13;6255263;23;20492;-80
2022/06/16 00:10:16;;;;;;;9.38;5.63;;;;;;;18.89;57.63;100946.13;6253297;23;20070;-79
2022/06/16 00:12:43;;;;;;;10.98;6.10;;;;;;;18.89;57.68;100943.47;6252540;23;20017;-80
2022/06/16 00:15:18;;;;;;;8.65;5.93;;;;;;;18.81;58.05;100935.72;6251799;23;20374;-79
2022/06/16 00:17:45;;;;;;;8.38;5.40;;;;;;;18.78;58.14;100944.88;6252610;23;20024;-80
2022/06/16 00:20:13;;;;;;;11.95;5.85;;;;;;;18.70;58.46;100950.38;6251250;23;20059;-80
2022/06/16 00:22:40;;;;;;;9.82;6.05;;;;;;;18.66;58.97;100953.63;6253085;23;20016;-80
2022/06/16 00:25:08;;;;;;;7.40;5.28;;;;;;;18.62;59.22;100958.50;6253215;23;20051;-80
2022/06/16 00:27:37;;;;;;;11.65;5.70;;;;;;;18.61;59.30;100956.88;6252755;23;20058;-80
2022/06/16 00:30:04;;;;;;;9.75;6.10;;;;;;;18.56;59.24;100951.31;6255472;23;20036;-80
2022/06/16 00:32:31;;;;;;;10.90;6.00;;;;;;;18.54;59.50;100963.97;6254804;23;20024;-80
2022/06/16 00:34:58;;;;;;;9.60;5.60;;;;;;;18.44;59.84;100956.38;6254104;23;20024;-80
2022/06/16 00:37:25;;;;;;;7.75;5.30;;;;;;;18.43;60.14;100960.06;6259917;23;20432;-81
2022/06/16 00:39:52;;;;;;;11.70;5.90;;;;;;;18.34;60.19;100961.28;6257739;23;20027;-81
2022/06/16 00:42:22;;;;;;;8.63;6.13;;;;;;;18.33;60.63;100966.78;6259448;23;20024;-81
2022/06/16 00:44:52;;;;;;;9.77;5.68;;;;;;;18.35;60.54;100957.59;6258523;23;20074;-81
2022/06/16 00:47:20;;;;;;;11.82;6.15;;;;;;;18.22;60.81;100953.06;6259641;23;20079;-81
2022/06/16 00:49:50;;;;;;;8.93;5.88;;;;;;;18.24;61.23;100955.53;6257036;23;20046;-78
2022/06/16 00:52:20;;;;;;;11.93;5.70;;;;;;;18.26;60.92;100957.97;6254812;23;20020;-80
2022/06/16 00:54:52;;;;;;;12.95;6.20;;;;;;;18.29;60.98;100957.59;6256533;23;20020;-80
2022/06/16 00:57:23;;;;;;;10.55;6.18;;;;;;;18.26;61.49;100960.63;6256408;23;20020;-80
2022/06/16 00:59:51;;;;;;;8.43;6.20;;;;;;;18.14;61.73;100955.06;6255552;23;20112;-80
2022/06/16 01:02:18;;;;;;;11.55;5.90;;;;;;;18.13;61.95;100971.97;6256174;23;20077;-79
2022/06/16 01:04:53;;;;;;;8.35;6.05;;;;;;;18.11;61.92;100969.53;6253791;23;20081;-80
2022/06/16 01:07:24;;;;;;;7.43;5.57;;;;;;;18.10;62.07;100973.19;6257498;23;20032;-79
2022/06/16 01:09:52;;;;;;;11.43;5.68;;;;;;;18.03;62.42;100968.88;6256554;23;20062;-80
2022/06/16 01:15:39;;;;;;;11.20;6.15;;;;;;;18.05;62.35;100972.94;6255250;23;20034;-80
2022/06/16 01:18:24;;;;;;;7.15;5.95;;;;;;;18.05;62.34;100980.91;6254400;23;20403;-79
2022/06/16 01:20:57;;;;;;;10.02;5.97;;;;;;;17.99;62.66;100984.31;6256323;23;20020;-80
2022/06/16 01:24:04;;;;;;;10.57;6.35;;;;;;;17.97;62.75;100991.66;6252491;23;20461;-80
2022/06/16 01:26:54;;;;;;;9.98;6.63;;;;;;;17.92;62.97;100987.97;6251447;23;20047;-81
2022/06/16 01:29:34;;;;;;;9.57;6.30;;;;;;;17.81;63.44;100991.97;6250925;23;20024;-81
2022/06/16 01:32:11;;;;;;;9.98;7.32;;;;;;;17.74;63.35;100983.19;6250848;23;20017;-79
2022/06/16 01:34:45;;;;;;;9.88;6.20;;;;;;;17.71;63.80;100988.84;6251289;23;20036;-79
2022/06/16 01:37:17;;;;;;;13.13;6.82;;;;;;;17.73;63.38;100994.78;6251616;23;20077;-79
2022/06/16 01:39:49;;;;;;;8.85;6.15;;;;;;;17.59;63.46;100984.06;6251890;23;20028;-80
2022/06/16 01:42:21;;;;;;;11.88;6.07;;;;;;;17.58;63.65;100984.25;6251881;23;20020;-80
2022/06/16 01:44:57;;;;;;;11.18;6.15;;;;;;;17.54;63.57;100981.19;6253355;23;20044;-80
2022/06/16 01:47:26;;;;;;;11.05;6.25;;;;;;;17.56;63.32;101005.63;6250658;23;20086;-82
2022/06/16 01:49:58;;;;;;;9.20;5.93;;;;;;;17.61;62.90;101012.16;6252045;23;20020;-80
2022/06/16 01:52:28;;;;;;;9.82;6.05;;;;;;;17.59;63.28;101005.22;6250581;23;20054;-80
2022/06/16 01:55:02;;;;;;;7.03;5.60;;;;;;;17.55;63.03;101003.16;6249862;23;20074;-79
2022/06/16 01:57:34;;;;;;;9.23;6.07;;;;;;;17.55;62.89;100998.69;6250151;23;20130;-81
2022/06/16 02:00:06;;;;;;;;;;;;;;;17.53;63.10;101005.19;6250625;23;20024;-79
2022/06/16 02:02:36;;;;;;;10.25;5.93;;;;;;;17.49;63.13;100988.88;6250694;23;19943;-79
2022/06/16 02:05:08;;;;;;;12.38;6.40;;;;;;;17.47;62.97;100996.22;6250565;23;20115;-80
2022/06/16 02:07:39;;;;;;;10.63;6.40;;;;;;;17.45;62.99;100998.22;6250801;23;20082;-79
2022/06/16 02:10:11;;;;;;;8.52;5.95;;;;;;;17.41;63.08;101015.50;6249402;23;20098;-80
2022/06/16 02:12:57;;;;;;;10.65;6.10;;;;;;;17.37;63.41;101005.47;6248775;23;20024;-79
2022/06/16 02:15:34;;;;;;;11.50;5.97;;;;;;;17.43;63.44;101017.94;6251183;23;20031;-81
2022/06/16 02:18:05;;;;;;;9.00;6.50;;;;;;;17.45;63.26;101019.41;6253206;23;20028;-80
2022/06/16 02:20:40;;;;;;;11.23;6.82;;;;;;;17.41;63.31;101015.50;6252681;23;20024;-80
2022/06/16 02:23:07;;;;;;;10.20;6.10;;;;;;;17.37;63.42;101011.59;6252078;23;20024;-80
2022/06/16 02:25:34;;;;;;;8.75;6.00;;;;;;;17.31;63.72;101028.22;6252336;23;20024;-80
2022/06/16 02:28:01;;;;;;;7.80;5.90;;;;;;;17.29;63.89;101024.13;6251591;23;20028;-80
2022/06/16 02:30:35;;;;;;;10.77;7.47;;;;;;;17.15;63.77;101028.47;6251331;23;20484;-80
2022/06/16 02:33:08;;;;;;;13.75;6.68;;;;;;;17.19;64.04;101022.63;6254791;23;20364;-80
2022/06/16 02:35:43;;;;;;;13.70;6.38;;;;;;;17.14;64.04;101032.94;6250335;23;20024;-79
2022/06/16 02:38:20;;;;;;;8.88;6.13;;;;;;;17.09;63.77;101023.94;6251753;23;20390;-79
2022/06/16 02:40:58;;;;;;;11.75;5.88;;;;;;;17.01;64.21;101026.72;6248752;23;20024;-80
2022/06/16 02:43:43;;;;;;;8.30;6.00;;;;;;;16.96;63.82;101029.13;6250537;23;20016;-79
2022/06/16 02:46:24;;;;;;;10.27;6.20;;;;;;;16.97;63.95;101020.19;6250921;23;20469;-79
2022/06/16 02:48:57;;;;;;;10.15;6.35;;;;;;;16.94;64.10;101025.84;6251240;23;20099;-80
2022/06/16 02:51:30;;;;;;;13.20;6.20;;;;;;;16.82;64.50;101013.13;6251504;23;20024;-80
2022/06/16 02:54:05;;;;;;;13.48;6.32;;;;;;;16.84;64.42;101020.84;6251642;23;20345;-80
2022/06/16 02:56:39;;;;;;;8.93;6.00;;;;;;;16.86;64.06;101024.94;6250540;23;20031;-79
2022/06/16 02:59:14;;;;;;;10.90;5.97;;;;;;;16.68;64.74;100999.94;6251035;23;20024;-80
2022/06/16 03:01:42;;;;;;;9.13;6.85;;;;;;;16.75;65.11;101016.69;6251233;23;20024;-79
2022/06/16 03:04:11;;;;;;;8.65;7.00;;;;;;;16.69;65.33;101022.72;6251020;23;20075;-80
2022/06/16 03:06:39;;;;;;;9.10;6.20;;;;;;;16.61;65.44;101023.59;6252674;23;20023;-80
2022/06/16 03:09:07;;;;;;;9.25;6.97;;;;;;;16.47;65.70;101022.66;6253788;23;20035;-80
2022/06/16 03:11:35;;;;;;;11.32;6.32;;;;;;;16.45;66.09;101021.19;6258931;23;20055;-81
2022/06/16 03:14:02;;;;;;;11.38;6.43;;;;;;;16.37;66.34;101029.22;6256663;23;20042;-81
2022/06/16 03:16:29;;;;;;;16.65;7.18;;;;;;;16.29;66.62;101034.59;6252278;23;20433;-79
2022/06/16 03:18:58;;;;;;;9.70;6.95;;;;;;;16.29;66.21;101039.88;6251541;23;20024;-81
2022/06/16 03:21:25;;;;;;;13.10;7.30;;;;;;;16.11;66.80;101041.06;6250961;23;20043;-79
2022/06/16 03:23:51;;;;;;;10.80;7.00;;;;;;;16.11;66.84;101046.34;6257984;23;20042;-79
2022/06/16 03:26:18;;;;;;;10.45;6.70;;;;;;;16.07;66.62;101052.97;6268334;22;20020;-78
2022/06/16 03:28:45;;;;;;;9.95;7.20;;;;;;;15.99;67.19;101045.16;6264455;23;20080;-79
2022/06/16 03:31:11;;;;;;;11.15;6.60;;;;;;;16.01;67.16;101051.09;6248466;23;20028;-79
2022/06/16 03:33:38;;;;;;;11.55;6.90;;;;;;;16.01;66.73;101056.38;6247042;23;20487;-79
2022/06/16 03:36:06;;;;;;;10.90;6.65;;;;;;;16.00;66.83;101062.66;6248390;23;20027;-79
2022/06/16 03:38:37;;;;;;;13.43;6.85;;;;;;;16.02;66.47;101063.28;6247990;23;20031;-79
2022/06/16 03:41:04;;;;;;;12.80;6.75;;;;;;;16.01;66.50;101063.47;6247589;23;20103;-79
2022/06/16 03:43:31;;;;;;;11.85;6.50;;;;;;;15.99;66.34;101071.56;6248436;23;20052;-79
2022/06/16 03:45:57;;;;;;;9.95;6.65;;;;;;;16.04;66.04;101085.03;6247164;23;20024;-79
2022/06/16 03:48:24;;;;;;;12.55;6.70;;;;;;;16.05;66.09;101078.75;6249953;23;20099;-81
2022/06/16 03:50:51;;;;;;;9.93;6.80;;;;;;;16.04;66.09;101077.13;6249414;23;20031;-80
2022/06/16 03:53:19;;;;;;;10.98;6.90;;;;;;;16.04;65.86;101077.13;6248868;23;20384;-80
2022/06/16 03:55:46;;;;;;;15.48;6.75;;;;;;;16.11;65.79;101088.56;6248479;23;20020;-80
2022/06/16 03:58:14;;;;;;;12.20;6.70;;;;;;;16.08;66.07;101088.94;6248981;23;20560;-81
2022/06/16 04:00:41;;;;;;;10.23;5.97;;;;;;;16.11;65.89;101082.47;6248836;23;20474;-80
2022/06/16 04:05:52;;;;;;;12.70;6.88;;;;;;;16.23;65.29;101086.31;6249479;23;20058;-80
2022/06/16 04:08:21;;;;;;;9.48;6.35;;;;;;;16.30;65.01;101081.13;6249839;23;20076;-80
2022/06/16 04:10:48;;;;;;;8.48;6.13;;;;;;;16.67;63.48;101083.66;6250131;23;20024;-80
2022/06/16 04:13:16;;;;;;;9.80;5.90;;;;;;;17.51;61.06;101092.69;6249330;23;20055;-80
2022/06/16 04:15:42;;;;;;;10.63;6.35;;;;;;;18.31;58.44;101109.19;6252327;23;20032;-80
2022/06/16 04:18:12;;;;;;;11.07;5.95;;;;;;;18.72;56.90;101112.69;6252929;23;20020;-80
2022/06/16 04:20:39;;;;;;;9.73;5.60;;;;;;;18.82;56.09;101120.28;6253036;23;20024;-81
2022/06/16 04:23:11;;;;;;;10.35;5.90;;;;;;;18.73;56.04;101114.34;6251553;23;20047;-80
2022/06/16 04:25:39;;;;;;;8.93;5.90;;;;;;;18.80;55.89;101109.88;6247967;23;20082;-81
2022/06/16 04:28:08;;;;;;;11.10;5.53;;;;;;;19.34;54.43;101106.34;6256965;23;20028;-82
2022/06/16 04:30:35;;;;;;;8.07;5.43;;;;;;;19.70;53.21;101110.50;6257666;23;20024;-82
2022/06/16 04:33:01;;;;;;;11.38;5.65;;;;;;;19.46;53.45;101115.34;6257638;23;20027;-82
2022/06/16 04:35:29;;;;;;;11.52;5.57;;;;;;;19.27;54.05;101128.59;6256095;23;20048;-79
2022/06/16 04:37:56;;;;;;;8.30;6.45;;;;;;;19.08;54.62;101127.50;6256596;23;20465;-82
2022/06/16 04:40:23;;;;;;;7.93;5.80;;;;;;;18.56;55.68;101135.00;6256521;23;20020;-82
2022/06/16 04:42:51;;;;;;;7.72;5.93;;;;;;;18.42;56.45;101138.63;6254878;23;20031;-81
2022/06/16 04:45:18;;;;;;;12.45;5.50;;;;;;;18.49;57.03;101142.09;6251504;23;20028;-81
2022/06/16 04:47:44;;;;;;;8.30;5.95;;;;;;;18.72;54.68;101135.75;6251779;23;20051;-81
2022/06/16 04:50:17;;;;;;;9.32;5.95;;;;;;;18.90;54.56;101134.16;6253686;23;20031;-82
2022/06/16 04:52:44;;;;;;;10.15;5.95;;;;;;;18.43;56.22;101132.28;6253581;23;20047;-83
2022/06/16 04:55:11;;;;;;;10.93;6.05;;;;;;;18.81;55.06;101143.34;6253598;23;20102;-84
2022/06/16 04:57:38;;;;;;;9.65;5.78;;;;;;;19.25;54.08;101139.41;6253820;23;20078;-83
2022/06/16 05:00:08;;;;;;;8.95;5.90;;;;;;;19.45;53.32;101145.53;6253143;23;20024;-83
2022/06/16 05:02:35;;;;;;;10.52;6.15;;;;;;;19.40;52.62;101144.50;6255388;23;20024;-83
2022/06/16 05:05:02;;;;;;;9.82;5.75;;;;;;;19.76;52.65;101146.84;6255516;23;20473;-84
2022/06/16 05:07:29;;;;;;;9.90;5.90;;;;;;;19.83;51.98;101145.03;6255842;23;20020;-83
2022/06/16 05:09:56;;;;;;;7.70;5.40;;;;;;;20.12;51.22;101151.75;6255739;23;20582;-84
2022/06/16 05:12:22;;;;;;;8.18;5.38;;;;;;;20.30;50.52;101159.91;6256257;23;20020;-84
2022/06/16 05:14:49;;;;;;;10.10;5.50;;;;;;;20.51;50.33;101166.81;6257947;23;20047;-84
2022/06/16 05:17:17;;;;;;;10.13;6.03;;;;;;;20.73;48.88;101167.38;6255605;23;20265;-84
2022/06/16 05:19:44;;;;;;;9.93;5.85;;;;;;;21.27;48.04;101161.63;6255447;23;20454;-84
2022/06/16 05:22:10;;;;;;;9.82;5.30;;;;;;;21.60;47.28;101166.75;6253517;23;20024;-83
2022/06/16 05:24:39;;;;;;;11.48;5.32;;;;;;;22.31;45.67;101168.22;6254885;23;20020;-85
2022/06/16 05:27:07;;;;;;;12.27;5.25;;;;;;;23.18;43.69;101173.19;6254943;23;20059;-84
2022/06/16 05:29:34;;;;;;;8.68;5.55;;;;;;;23.64;42.48;101181.59;6253177;23;20024;-85
2022/06/16 05:32:01;;;;;;;12.50;5.88;;;;;;;23.42;41.99;101187.44;6252918;23;20376;-82
2022/06/16 05:34:29;;;;;;;8.60;6.00;;;;;;;23.90;41.62;101188.41;6254774;23;20047;-82
2022/06/16 05:36:56;;;;;;;8.30;5.63;;;;;;;24.08;41.04;101197.16;6257361;23;20111;-82
2022/06/16 05:39:22;;;;;;;10.50;5.57;;;;;;;23.98;41.04;101188.06;6256700;23;20024;-83
2022/06/16 05:41:49;;;;;;;6.18;4.97;;;;;;;23.68;40.75;101193.47;6256568;23;20087;-83
2022/06/16 05:44:16;;;;;;;9.15;5.50;;;;;;;23.56;40.19;101206.00;6255586;23;20024;-82
2022/06/16 05:46:42;;;;;;;8.90;5.25;;;;;;;23.02;41.57;101203.19;6255656;23;20027;-82
2022/06/16 05:49:12;;;;;;;9.35;4.97;;;;;;;23.38;40.80;101212.97;6254770;23;20024;-83
2022/06/16 05:51:40;;;;;;;8.15;5.20;;;;;;;22.88;41.38;101222.25;6255750;23;20024;-82
2022/06/16 05:54:07;;;;;;;10.00;5.53;;;;;;;22.80;41.44;101213.50;6255203;23;20016;-82
2022/06/16 05:56:34;;;;;;;11.48;5.45;;;;;;;23.38;41.02;101209.50;6253419;23;20035;-82
2022/06/16 05:59:01;;;;;;;11.27;5.70;;;;;;;22.59;41.74;101202.44;6254084;23;20028;-83
2022/06/16 06:01:28;;;;;;;9.13;5.18;;;;;;;23.52;40.80;101213.63;6253475;23;20024;-82
2022/06/16 06:03:55;;;;;;;12.65;5.53;;;;;;;23.24;40.62;101206.19;6254965;23;20027;-82
2022/06/16 06:06:21;;;;;;;8.27;5.30;;;;;;;23.81;39.23;101220.81;6257519;23;20024;-82
2022/06/16 06:17:08;;;;;;;8.18;5.00;;;;;;;25.08;37.35;101234.41;6253208;23;20351;-81
2022/06/16 06:19:35;;;;;;;8.90;5.65;;;;;;;24.61;37.71;101233.66;6252439;23;20028;-81
2022/06/16 06:22:06;;;;;;;11.77;5.25;;;;;;;24.99;37.35;101240.41;6254223;23;20020;-82
2022/06/16 06:24:36;;;;;;;8.88;5.30;;;;;;;25.22;36.48;101240.31;6254063;23;20332;-81
2022/06/16 06:27:11;;;;;;;10.63;5.50;;;;;;;25.31;36.48;101238.91;6252764;23;20024;-82
2022/06/16 06:29:38;;;;;;;9.70;5.03;;;;;;;25.50;36.39;101236.03;6252439;23;20339;-82
2022/06/16 06:32:06;;;;;;;7.75;5.65;;;;;;;25.65;35.16;101239.00;6254358;23;20472;-82
2022/06/16 06:34:32;;;;;;;7.53;5.60;;;;;;;25.92;35.88;101250.75;6254971;23;20016;-82
2022/06/16 06:36:59;;;;;;;8.68;5.72;;;;;;;24.75;37.00;101251.13;6255481;23;20024;-82
2022/06/16 06:39:26;;;;;;;8.90;5.93;;;;;;;25.64;36.89;101253.47;6253555;23;20074;-82
2022/06/16 06:41:54;;;;;;;9.35;5.60;;;;;;;26.95;33.86;101254.69;6257235;23;20079;-82
2022/06/16 06:44:20;;;;;;;8.27;5.70;;;;;;;26.55;34.01;101251.47;6255076;23;20008;-82
2022/06/16 06:46:47;;;;;;;6.20;4.72;;;;;;;26.32;35.36;101249.81;6255703;23;20035;-82
2022/06/16 06:49:14;;;;;;;9.80;5.70;;;;;;;25.57;36.05;101253.56;6254308;23;20024;-82
2022/06/16 06:51:41;;;;;;;7.03;5.40;;;;;;;26.11;35.33;101260.16;6252395;23;20020;-81
2022/06/16 06:54:08;;;;;;;6.30;5.22;;;;;;;25.06;36.41;101257.94;6253414;23;20027;-84
2022/06/16 06:56:35;;;;;;;9.15;5.50;;;;;;;25.98;35.77;101257.03;6254436;23;20024;-82
2022/06/16 06:59:06;;;;;;;8.20;5.20;;;;;;;26.38;34.72;101254.19;6252266;23;20038;-83
2022/06/16 07:01:33;;;;;;;8.37;5.23;;;;;;;26.10;35.11;101261.22;6251561;23;20020;-82
2022/06/16 07:04:00;;;;;;;9.45;5.20;;;;;;;25.34;35.99;101267.88;6253162;23;20380;-84
2022/06/16 07:06:27;;;;;;;10.48;5.53;;;;;;;25.09;36.44;101275.41;6252338;23;20097;-83
2022/06/16 07:08:54;;;;;;;8.35;4.85;;;;;;;25.70;36.51;101276.63;6252401;23;20082;-80
2022/06/16 07:11:21;;;;;;;5.97;4.78;;;;;;;27.36;32.57;101274.03;6253223;23;20028;-81
2022/06/16 07:13:47;;;;;;;11.85;4.72;;;;;;;26.26;34.53;101267.66;6252451;23;20023;-82
2022/06/16 07:16:16;;;;;;;7.00;5.20;;;;;;;25.53;35.39;101279.22;6251942;23;20020;-80
2022/06/16 07:18:44;;;;;;;7.47;4.90;;;;;;;25.42;36.28;101280.91;6248687;23;20059;-81
2022/06/16 07:21:12;;;;;;;10.70;4.95;;;;;;;26.11;34.98;101280.81;6251217;23;20024;-82
2022/06/16 07:23:39;;;;;;;12.00;4.50;;;;;;;26.49;34.05;101284.66;6250411;23;20099;-79
2022/06/16 07:26:05;;;;;;;8.82;4.63;;;;;;;26.34;34.24;101290.63;6247841;23;20024;-83
2022/06/16 07:28:32;;;;;;;8.07;4.90;;;;;;;25.59;35.40;101298.88;6252630;23;20031;-80
2022/06/16 07:30:59;;;;;;;10.38;4.88;;;;;;;25.88;35.08;101299.75;6251171;23;20020;-81
2022/06/16 07:33:27;;;;;;;8.73;4.40;;;;;;;26.63;34.42;101294.81;6248053;23;20521;-82
2022/06/16 07:35:55;;;;;;;7.40;4.50;;;;;;;27.06;34.29;101301.31;6249686;23;20545;-81
2022/06/16 07:38:22;;;;;;;8.70;5.00;;;;;;;27.28;32.48;101301.34;6249748;23;20020;-83
2022/06/16 07:40:49;;;;;;;8.85;4.50;;;;;;;27.80;32.43;101304.34;6252034;23;20024;-81
2022/06/16 07:43:16;;;;;;;12.93;4.90;;;;;;;27.98;31.67;101312.03;6252434;23;20511;-83
2022/06/16 07:45:43;;;;;;;6.93;4.88;;;;;;;27.81;31.89;101310.56;6251787;23;20031;-83
2022/06/16 07:48:23;;;;;;;9.68;4.70;;;;;;;27.54;32.60;101315.88;6252373;23;20035;-82
2022/06/16 07:50:52;;;;;;;8.25;4.85;;;;;;;27.13;32.65;101319.94;6252898;23;20047;-83
2022/06/16 07:53:18;;;;;;;6.95;4.85;;;;;;;27.84;32.89;101313.53;6251265;23;20024;-83
2022/06/16 07:55:45;;;;;;;9.80;5.07;;;;;;;27.07;32.59;101305.63;6250886;23;20024;-84
2022/06/16 07:58:12;;;;;;;6.40;4.47;;;;;;;26.54;33.77;101307.00;6252548;23;20464;-83
2022/06/16 08:00:39;;;;;;;6.55;4.88;;;;;;;26.70;33.53;101311.56;6252795;23;20024;-83
2022/06/16 08:03:05;;;;;;;8.48;5.18;;;;;;;27.10;33.35;101321.25;6250338;23;20024;-83
2022/06/16 08:05:55;;;;;;;8.75;4.68;;;;;;;26.73;34.05;101321.81;6248750;23;20016;-83
2022/06/16 08:08:26;;;;;;;8.70;5.10;;;;;;;26.63;33.35;101321.66;6251027;23;20025;-84
2022/06/16 08:10:54;;;;;;;6.32;4.65;;;;;;;26.98;33.18;101323.25;6252798;23;20079;-83
2022/06/16 08:13:23;;;;;;;9.68;4.63;;;;;;;26.82;33.29;101324.88;6249501;23;20075;-84
2022/06/16 08:15:51;;;;;;;7.63;4.60;;;;;;;27.56;32.89;101324.50;6250335;23;20024;-81
2022/06/16 08:18:20;;;;;;;7.53;5.10;;;;;;;26.41;32.97;101334.19;6249640;23;20020;-82
2022/06/16 08:20:47;;;;;;;6.70;5.07;;;;;;;26.29;34.49;101341.47;6250134;23;20024;-82
2022/06/16 08:23:15;;;;;;;8.13;4.68;;;;;;;26.36;34.77;101328.75;6250965;23;20020;-82
2022/06/16 08:25:44;;;;;;;10.80;5.00;;;;;;;26.83;33.45;101339.13;6250298;23;20020;-82
2022/06/16 08:28:14;;;;;;;8.32;4.78;;;;;;;25.21;35.59;101345.00;6248866;23;20456;-82
2022/06/16 08:30:44;;;;;;;9.50;5.10;;;;;;;25.24;36.97;101345.38;6249424;23;20024;-81
2022/06/16 08:33:13;;;;;;;9.05;4.55;;;;;;;26.28;35.12;101345.22;6246906;23;20032;-82
2022/06/16 08:35:41;;;;;;;9.32;4.90;;;;;;;27.02;33.80;101352.03;6248485;23;20020;-80
2022/06/16 08:38:09;;;;;;;5.22;4.22;;;;;;;27.10;33.16;101354.31;6249391;23;20067;-81
2022/06/16 08:40:43;;;;;;;9.88;5.22;;;;;;;26.32;33.89;101357.13;6251853;23;20031;-82
2022/06/16 08:43:19;;;;;;;7.55;4.85;;;;;;;26.26;34.20;101353.50;6251147;23;20058;-80
2022/06/16 08:45:54;;;;;;;7.70;4.82;;;;;;;26.16;34.15;101352.50;6251976;23;20062;-82
2022/06/16 08:48:28;;;;;;;6.55;4.63;;;;;;;26.70;33.91;101343.78;6251409;23;20024;-82
2022/06/16 08:50:59;;;;;;;7.78;4.72;;;;;;;26.83;33.76;101348.00;6251010;23;20058;-81
2022/06/16 08:53:54;;;;;;;6.30;4.50;;;;;;;26.34;33.43;101349.66;6253038;23;20031;-80
2022/06/16 08:56:31;;;;;;;8.30;4.60;;;;;;;25.57;34.67;101342.00;6250953;23;20078;-82
2022/06/16 08:59:07;;;;;;;7.35;4.80;;;;;;;25.96;34.85;101350.28;6250271;23;20024;-82
2022/06/16 09:01:38;;;;;;;7.43;4.40;;;;;;;26.75;32.46;101343.84;6250079;23;20507;-81
2022/06/16 09:04:10;;;;;;;7.13;4.60;;;;;;;26.44;31.92;101357.88;6251677;23;20032;-82
2022/06/16 09:06:51;;;;;;;10.70;4.63;;;;;;;26.41;33.34;101351.13;6253014;23;20544;-82
2022/06/16 09:12:41;;;;;;;6.05;3.88;;;;;;;27.59;31.11;101357.09;6251532;23;20038;-82
2022/06/16 09:15:20;;;;;;;5.43;3.90;;;;;;;27.83;30.81;101362.22;6251447;23;20107;-81
2022/06/16 09:18:07;;;;;;;6.72;3.65;;;;;;;26.14;29.06;101382.25;6252277;23;20120;-83
2022/06/16 09:20:41;;;;;;;5.47;3.90;;;;;;;24.91;30.99;101371.91;6251059;23;20130;-81
2022/06/16 09:23:28;;;;;;;8.20;4.88;;;;;;;25.12;31.40;101379.38;6251440;23;20646;-81
2022/06/16 09:26:08;;;;;;;7.60;4.18;;;;;;;25.46;30.97;101388.44;6256443;23;20089;-82
2022/06/16 09:28:43;;;;;;;6.07;3.67;;;;;;;25.88;30.06;101389.03;6254128;23;20028;-81
2022/06/16 09:31:15;;;;;;;5.82;3.67;;;;;;;26.08;30.58;101394.75;6255188;23;20020;-82
2022/06/16 09:33:47;;;;;;;7.63;4.00;;;;;;;26.54;29.35;101381.34;6252575;23;20024;-82
2022/06/16 09:36:19;;;;;;;8.20;3.75;;;;;;;26.44;29.42;101398.94;6252795;23;20512;-80
2022/06/16 09:38:55;;;;;;;5.18;3.42;;;;;;;26.56;29.13;101385.41;6252821;23;20024;-81
2022/06/16 09:44:29;;;;;;;6.57;3.42;;;;;;;26.14;29.19;101409.06;6252130;23;20022;-83
2022/06/16 09:47:02;;;;;;;4.68;3.42;;;;;;;25.58;30.56;101409.81;6251923;23;20020;-81
2022/06/16 09:49:38;;;;;;;7.15;3.70;;;;;;;26.19;29.65;101419.09;6252171;23;20039;-82
2022/06/16 09:52:12;;;;;;;4.18;3.47;;;;;;;26.02;30.87;101422.53;6251277;23;20031;-81
2022/06/16 09:54:44;;;;;;;7.55;3.83;;;;;;;25.98;29.52;101425.97;6246597;23;20024;-81
2022/06/16 09:57:14;;;;;;;6.55;3.70;;;;;;;25.79;30.80;101420.75;6250100;23;20020;-80
2022/06/16 09:59:48;;;;;;;5.75;3.85;;;;;;;26.16;30.50;101428.44;6250596;23;20090;-81
2022/06/16 10:02:19;;;;;;;5.22;3.42;;;;;;;26.54;30.22;101414.38;6248821;23;20047;-82
2022/06/16 10:04:49;;;;;;;4.55;3.45;;;;;;;26.21;29.97;101415.13;6250358;23;20024;-80
2022/06/16 10:07:22;;;;;;;5.47;3.38;;;;;;;25.08;30.48;101429.91;6247558;23;20020;-81
2022/06/16 10:09:57;;;;;;;7.07;3.63;;;;;;;25.63;29.96;101429.50;6247435;23;20024;-80
2022/06/16 10:12:32;;;;;;;8.23;4.07;;;;;;;24.89;31.09;101438.25;6249209;23;20031;-81
2022/06/16 10:15:06;;;;;;;6.88;3.80;;;;;;;25.29;31.73;101417.78;6250522;23;20340;-82
2022/06/16 10:17:34;;;;;;;7.15;3.80;;;;;;;25.38;32.35;101431.66;6250854;23;20082;-80
2022/06/16 10:20:01;;;;;;;6.38;4.18;;;;;;;25.20;30.23;101429.91;6251885;23;20441;-80
2022/06/16 10:22:31;;;;;;;6.63;3.45;;;;;;;25.52;31.52;101442.94;6250764;23;20023;-81
2022/06/16 10:25:05;;;;;;;6.68;3.58;;;;;;;25.44;31.32;101438.75;6250947;23;20103;-81
2022/06/16 10:27:36;;;;;;;5.72;3.65;;;;;;;25.56;31.44;101442.22;6251252;23;20028;-80
2022/06/16 10:30:08;;;;;;;6.93;3.75;;;;;;;24.72;32.37;101438.91;6252274;23;20059;-81
2022/06/16 10:32:42;;;;;;;7.00;3.83;;;;;;;24.94;31.91;101457.13;6249838;23;20035;-80
2022/06/16 10:35:16;;;;;;;5.65;3.72;;;;;;;24.71;31.67;101449.84;6252339;23;20028;-81
2022/06/16 10:37:45;;;;;;;7.15;4.25;;;;;;;24.47;33.63;101446.31;6251927;23;20028;-82
2022/06/16 10:40:16;;;;;;;5.30;4.10;;;;;;;24.55;33.02;101448.66;6251564;23;20121;-81
2022/06/16 10:42:46;;;;;;;5.47;3.60;;;;;;;24.96;32.41;101442.50;6247773;22;20492;-83
2022/06/16 10:45:17;;;;;;;7.70;3.95;;;;;;;25.30;32.18;101446.22;6256218;23;20089;-79
2022/06/16 10:47:50;;;;;;;8.75;3.92;;;;;;;24.30;33.32;101451.47;6253544;23;20110;-82
2022/06/16 10:50:22;;;;;;;5.72;3.90;;;;;;;24.86;32.96;101442.22;6252062;23;20020;-84
2022/06/16 10:52:54;;;;;;;6.03;3.80;;;;;;;25.19;32.21;101432.81;6254178;23;20024;-83
2022/06/16 10:55:23;;;;;;;7.05;3.67;;;;;;;25.28;31.44;101426.88;6253335;23;20027;-82
2022/06/16 10:57:59;;;;;;;7.15;3.88;;;;;;;25.35;31.54;101426.75;6253865;23;20024;-81
2022/06/16 11:00:29;;;;;;;6.50;3.63;;;;;;;24.43;32.25;101434.44;6253211;23;20031;-84
2022/06/16 11:03:02;;;;;;;7.07;4.05;;;;;;;24.45;32.60;101422.47;6254021;23;20024;-84
2022/06/16 11:05:32;;;;;;;6.13;3.92;;;;;;;24.27;32.67;101424.38;6254616;23;20016;-83
2022/06/16 11:08:08;;;;;;;5.40;3.45;;;;;;;24.94;32.29;101430.34;6254430;23;20047;-84
2022/06/16 11:10:40;;;;;;;6.72;3.50;;;;;;;25.38;32.22;101426.28;6255764;23;20032;-84
2022/06/16 11:13:13;;;;;;;7.18;3.60;;;;;;;25.24;31.40;101432.94;6255826;23;20023;-84
2022/06/16 11:15:47;;;;;;;4.75;3.60;;;;;;;25.03;31.63;101416.41;6258298;23;20027;-81
2022/06/16 11:18:19;;;;;;;6.88;3.42;;;;;;;25.43;31.53;101423.72;6257874;23;20020;-84
2022/06/16 11:20:48;;;;;;;5.65;3.50;;;;;;;25.40;31.64;101434.91;6257514;23;20032;-84
2022/06/16 11:23:31;;;;;;;4.75;3.30;;;;;;;25.55;30.64;101435.22;6254816;23;20028;-82
2022/06/16 11:26:07;;;;;;;9.10;3.40;;;;;;;24.98;31.53;101443.06;6253616;23;20346;-81
2022/06/16 11:28:43;;;;;;;5.55;3.47;;;;;;;25.07;30.60;101425.59;6250402;23;20020;-82
2022/06/16 11:31:15;;;;;;;5.72;2.97;;;;;;;25.80;31.25;101437.66;6249474;23;20054;-83
2022/06/16 11:36:45;;;;;;;5.22;2.95;;;;;;;24.75;30.06;101449.16;6250524;23;19977;-82
2022/06/16 11:39:18;;;;;;;6.25;3.08;;;;;;;24.36;30.79;101441.75;6249217;23;20035;-82
2022/06/16 11:41:49;;;;;;;5.63;3.30;;;;;;;25.04;30.01;101438.66;6250189;23;20035;-84
2022/06/16 11:44:26;;;;;;;4.32;3.30;;;;;;;24.96;29.81;101430.97;6254481;23;20020;-82
2022/06/16 11:47:04;;;;;;;6.60;3.20;;;;;;;24.96;30.78;101422.94;6253543;23;20068;-84
2022/06/16 11:49:39;;;;;;;6.57;3.00;;;;;;;25.34;30.37;101415.22;6255223;23;20024;-84
2022/06/16 11:52:13;;;;;;;4.35;3.17;;;;;;;25.34;29.32;101415.22;6258309;23;20024;-85
2022/06/16 11:54:51;;;;;;;10.10;3.22;;;;;;;24.41;30.40;101425.81;6257505;23;20012;-83
2022/06/16 11:57:31;;;;;;;3.75;2.92;;;;;;;24.27;30.92;101419.03;6252328;23;20091;-81
2022/06/16 12:00:31;;;;;;;6.78;2.97;;;;;;;25.08;30.84;101421.88;6252646;23;20020;-83